Time;durP1;ratioP1;P1;durP2;ratioP2;P2;SDS_P1;SDS_P2;PMS_P1;PMS_P2;Temp;Humidity;BMP_temperature;BMP_pressure;BME280_temperature;BME280_humidity;BME280_pressure;Samples;Min_cycle;Max_cycle;Signal;HPM_P1;HPM_P2
2023/12/25 00:00:44;;;;;;;21.50;4.07;;;12.80;99.90;;;;;;5090623;28;20040;-59
2023/12/25 00:03:10;;;;;;;20.42;4.30;;;12.50;99.90;;;;;;5090866;28;20032;-59
2023/12/25 00:05:36;;;;;;;15.93;2.58;;;13.00;99.90;;;;;;5091236;28;20054;-59
2023/12/25 00:08:01;;;;;;;16.63;3.03;;;12.80;99.90;;;;;;5090771;28;20479;-58
2023/12/25 00:10:27;;;;;;;16.25;2.83;;;12.60;99.90;;;;;;5089731;28;20474;-59
2023/12/25 00:12:52;;;;;;;15.15;2.92;;;12.90;99.90;;;;;;5091015;28;20071;-58
2023/12/25 00:15:19;;;;;;;16.30;2.75;;;12.80;99.90;;;;;;5090897;28;20403;-59
2023/12/25 00:17:44;;;;;;;12.50;2.10;;;12.80;99.90;;;;;;5108304;28;20125;-57
2023/12/25 00:20:10;;;;;;;18.65;2.83;;;12.90;99.90;;;;;;5103377;28;20040;-58
2023/12/25 00:22:36;;;;;;;16.17;2.83;;;12.60;99.90;;;;;;5090875;28;20036;-58
2023/12/25 00:25:02;;;;;;;23.80;2.95;;;12.40;99.90;;;;;;5090947;28;20502;-59
2023/12/25 00:27:27;;;;;;;16.58;2.88;;;12.40;99.90;;;;;;5091103;28;20032;-59
2023/12/25 00:29:53;;;;;;;19.98;4.35;;;12.80;99.90;;;;;;5090369;28;20047;-58
2023/12/25 00:32:20;;;;;;;26.02;2.55;;;12.60;99.90;;;;;;5090710;28;20043;-59
2023/12/25 00:34:45;;;;;;;15.80;2.70;;;12.60;99.90;;;;;;5090501;28;20032;-59
2023/12/25 00:37:11;;;;;;;14.18;2.42;;;12.80;99.90;;;;;;5091062;28;20043;-58
2023/12/25 00:39:37;;;;;;;13.70;2.10;;;12.80;99.90;;;;;;5090187;28;20475;-58
2023/12/25 00:42:03;;;;;;;19.33;3.05;;;12.80;99.90;;;;;;5108528;28;20036;-57
2023/12/25 00:44:28;;;;;;;12.60;2.60;;;12.30;99.90;;;;;;5112576;28;20032;-58
2023/12/25 00:46:54;;;;;;;19.00;2.83;;;12.70;99.90;;;;;;5114886;28;20039;-58
2023/12/25 00:49:20;;;;;;;17.77;3.20;;;12.30;99.90;;;;;;5114539;28;20024;-59
2023/12/25 00:51:46;;;;;;;16.63;2.90;;;12.10;99.90;;;;;;5114638;28;20047;-58
2023/12/25 00:54:11;;;;;;;13.50;2.60;;;12.50;99.90;;;;;;5114927;28;20043;-60
2023/12/25 00:56:37;;;;;;;23.38;4.45;;;12.40;99.90;;;;;;5115092;28;20067;-58
2023/12/25 00:59:03;;;;;;;19.90;4.30;;;12.60;99.90;;;;;;5113703;28;20074;-57
2023/12/25 01:01:28;;;;;;;25.42;5.13;;;12.50;99.90;;;;;;5114640;28;20092;-59
2023/12/25 01:03:54;;;;;;;23.55;4.47;;;12.30;99.90;;;;;;5114211;28;20043;-57
2023/12/25 01:06:20;;;;;;;20.02;2.65;;;12.60;99.90;;;;;;5114751;28;20043;-60
2023/12/25 01:08:45;;;;;;;17.10;2.67;;;12.60;99.90;;;;;;5114740;28;20054;-60
2023/12/25 01:11:11;;;;;;;24.85;3.45;;;12.20;99.90;;;;;;5113160;28;20471;-59
2023/12/25 01:13:37;;;;;;;24.00;3.15;;;12.20;99.90;;;;;;5114675;28;20047;-59
2023/12/25 01:16:03;;;;;;;18.02;3.00;;;12.30;99.90;;;;;;5114333;27;20032;-58
2023/12/25 01:18:29;;;;;;;22.85;4.88;;;12.60;99.90;;;;;;5114182;28;20448;-59
2023/12/25 01:20:54;;;;;;;16.63;2.47;;;12.10;99.90;;;;;;5114128;28;20039;-58
2023/12/25 01:23:20;;;;;;;24.55;3.47;;;12.60;99.90;;;;;;5114406;28;20080;-59
2023/12/25 01:25:46;;;;;;;23.23;2.92;;;12.20;99.90;;;;;;5093698;28;20036;-57
2023/12/25 01:28:11;;;;;;;23.80;3.17;;;12.10;99.90;;;;;;5093673;28;20036;-58
2023/12/25 01:30:37;;;;;;;18.27;2.92;;;12.10;99.90;;;;;;5093625;28;20036;-58
2023/12/25 01:33:03;;;;;;;20.08;3.95;;;12.10;99.90;;;;;;5094010;28;20471;-58
2023/12/25 01:35:28;;;;;;;19.95;4.22;;;12.00;99.90;;;;;;5112680;28;20028;-58
2023/12/25 01:37:54;;;;;;;28.65;3.83;;;12.30;99.90;;;;;;5114175;28;20050;-58
2023/12/25 01:40:21;;;;;;;21.00;4.00;;;12.00;99.90;;;;;;5113853;28;20126;-60
2023/12/25 01:42:47;;;;;;;14.93;2.65;;;12.00;99.90;;;;;;5112561;28;20031;-59
2023/12/25 01:45:13;;;;;;;22.05;2.92;;;12.10;99.90;;;;;;5113976;28;20032;-59
2023/12/25 01:47:39;;;;;;;21.13;2.60;;;12.50;99.90;;;;;;5113717;28;20498;-58
2023/12/25 01:50:06;;;;;;;13.65;2.67;;;12.30;99.90;;;;;;5091960;28;20079;-58
2023/12/25 01:52:32;;;;;;;20.80;2.63;;;12.00;99.90;;;;;;5093108;28;20047;-60
2023/12/25 01:54:59;;;;;;;21.92;3.03;;;12.20;99.90;;;;;;5092816;28;20387;-59
2023/12/25 01:57:26;;;;;;;16.05;2.67;;;12.30;99.90;;;;;;5111397;28;20107;-58
2023/12/25 01:59:51;;;;;;;16.40;2.72;;;12.30;99.90;;;;;;5113646;28;20138;-59
2023/12/25 02:02:20;;;;;;;17.33;2.17;;;12.30;99.90;;;;;;5113754;28;20542;-58
2023/12/25 02:04:46;;;;;;;19.30;2.95;;;12.30;99.90;;;;;;5112189;28;20051;-59
2023/12/25 02:07:13;;;;;;;18.10;2.38;;;12.10;99.90;;;;;;5113610;28;20040;-60
2023/12/25 02:09:39;;;;;;;15.43;2.42;;;12.50;99.90;;;;;;5113070;28;20157;-60
2023/12/25 02:12:05;;;;;;;18.92;2.90;;;12.40;99.90;;;;;;5113161;28;20561;-57
2023/12/25 02:14:31;;;;;;;16.52;2.60;;;12.50;99.90;;;;;;5096763;28;20418;-59
2023/12/25 02:16:57;;;;;;;18.63;2.10;;;12.40;99.90;;;;;;5111127;28;20040;-58
2023/12/25 02:19:39;;;;;;;15.35;3.05;;;12.50;99.90;;;;;;5112864;28;20058;-59
2023/12/25 02:22:07;;;;;;;15.95;2.30;;;12.10;99.90;;;;;;5113567;28;20081;-60
2023/12/25 02:24:35;;;;;;;14.05;2.05;;;12.10;99.90;;;;;;5113389;28;20040;-60
2023/12/25 02:27:01;;;;;;;14.73;1.73;;;12.20;99.90;;;;;;5094260;28;20524;-57
2023/12/25 02:29:26;;;;;;;16.90;3.10;;;12.10;99.90;;;;;;5098774;28;20032;-58
2023/12/25 02:31:52;;;;;;;13.57;3.03;;;12.20;99.90;;;;;;5091703;28;20447;-57
2023/12/25 02:34:18;;;;;;;16.17;1.88;;;12.40;99.90;;;;;;5100849;28;20152;-57
2023/12/25 02:36:44;;;;;;;15.80;2.38;;;12.20;99.90;;;;;;5094212;28;20036;-59
2023/12/25 02:39:09;;;;;;;13.80;1.92;;;12.30;99.90;;;;;;5092122;28;20040;-61
2023/12/25 02:41:35;;;;;;;12.57;1.73;;;12.30;99.90;;;;;;5092132;28;20036;-58
2023/12/25 02:44:02;;;;;;;14.70;2.85;;;12.20;99.90;;;;;;5092633;28;20042;-59
2023/12/25 02:46:27;;;;;;;11.20;1.98;;;12.10;99.90;;;;;;5092133;28;20040;-58
2023/12/25 02:48:53;;;;;;;9.63;1.75;;;12.50;99.90;;;;;;5091453;28;20031;-58
2023/12/25 02:51:18;;;;;;;14.75;1.85;;;12.30;99.90;;;;;;5091743;28;20078;-61
2023/12/25 02:53:44;;;;;;;15.25;1.60;;;12.30;99.90;;;;;;5091750;28;20039;-58
2023/12/25 02:56:10;;;;;;;13.13;1.85;;;12.30;99.90;;;;;;5091729;28;20032;-58
2023/12/25 02:58:35;;;;;;;11.00;2.50;;;12.10;99.90;;;;;;5091763;28;20036;-58
2023/12/25 03:01:01;;;;;;;11.98;2.30;;;12.20;99.90;;;;;;5091845;28;20036;-57
2023/12/25 03:03:27;;;;;;;12.10;1.63;;;12.10;99.90;;;;;;5091730;28;20036;-58
2023/12/25 03:05:52;;;;;;;13.18;1.80;;;12.10;99.90;;;;;;5091509;28;20047;-59
2023/12/25 03:08:18;;;;;;;13.40;2.17;;;12.20;99.90;;;;;;5091267;28;20036;-57
2023/12/25 03:10:44;;;;;;;9.23;1.75;;;12.10;99.90;;;;;;5091898;28;20179;-57
2023/12/25 03:13:09;;;;;;;10.63;2.22;;;12.10;99.90;;;;;;5091835;28;20079;-57
2023/12/25 03:15:35;;;;;;;13.25;1.98;;;12.10;99.90;;;;;;5091994;28;20048;-59
2023/12/25 03:18:01;;;;;;;9.52;1.63;;;12.40;99.90;;;;;;5090888;28;20040;-57
2023/12/25 03:20:26;;;;;;;10.82;1.65;;;12.20;99.90;;;;;;5091694;28;20039;-59
2023/12/25 03:22:52;;;;;;;9.98;1.60;;;12.30;99.90;;;;;;5091462;28;20047;-59
2023/12/25 03:25:18;;;;;;;12.15;2.53;;;12.40;99.90;;;;;;5109265;28;20032;-58
2023/12/25 03:27:43;;;;;;;10.82;1.55;;;12.30;99.90;;;;;;5110990;28;20039;-60
2023/12/25 03:30:09;;;;;;;10.10;1.75;;;12.30;99.90;;;;;;5111681;28;20100;-59
2023/12/25 03:32:35;;;;;;;8.38;1.67;;;12.30;99.90;;;;;;5111849;28;20036;-59
2023/12/25 03:35:01;;;;;;;10.00;2.10;;;12.30;99.90;;;;;;5112003;28;20038;-58
2023/12/25 03:37:27;;;;;;;7.68;1.15;;;12.30;99.90;;;;;;5110889;28;20038;-58
2023/12/25 03:39:53;;;;;;;18.25;2.13;;;12.10;99.90;;;;;;5091567;28;20031;-58
2023/12/25 03:42:19;;;;;;;9.73;1.25;;;12.10;99.90;;;;;;5090722;28;20040;-59
2023/12/25 03:44:44;;;;;;;10.68;1.30;;;12.00;99.90;;;;;;5091280;28;20051;-59
2023/12/25 03:47:14;;;;;;;8.10;1.17;;;12.10;99.90;;;;;;5109695;28;20028;-60
2023/12/25 03:49:39;;;;;;;11.85;2.40;;;12.40;99.90;;;;;;5111166;28;20413;-58
2023/12/25 03:52:05;;;;;;;6.53;1.02;;;12.20;99.90;;;;;;5111372;28;20058;-57
2023/12/25 03:54:31;;;;;;;16.10;1.50;;;12.20;99.90;;;;;;5111383;28;20127;-59
2023/12/25 03:56:57;;;;;;;13.75;1.50;;;12.20;99.90;;;;;;5111796;28;20575;-59
2023/12/25 03:59:23;;;;;;;10.45;2.00;;;12.10;99.90;;;;;;5111457;28;20082;-58
2023/12/25 04:01:48;;;;;;;8.50;2.28;;;12.10;99.90;;;;;;5110046;28;20490;-59
2023/12/25 04:04:14;;;;;;;11.82;1.55;;;12.30;99.90;;;;;;5102598;28;20390;-59
2023/12/25 04:06:40;;;;;;;11.18;1.95;;;12.40;99.90;;;;;;5109611;28;20118;-57
2023/12/25 04:09:06;;;;;;;11.32;1.58;;;12.30;99.90;;;;;;5110893;28;20121;-59
2023/12/25 04:11:31;;;;;;;8.95;1.40;;;12.10;99.90;;;;;;5111382;28;20036;-61
2023/12/25 04:13:58;;;;;;;12.93;1.35;;;12.40;99.90;;;;;;5111227;28;20080;-58
2023/12/25 04:16:25;;;;;;;10.68;1.58;;;12.40;99.90;;;;;;5111160;28;20031;-59
2023/12/25 04:18:54;;;;;;;16.45;1.73;;;12.20;99.90;;;;;;5113269;28;20031;-60
2023/12/25 04:21:27;;;;;;;11.55;1.60;;;12.40;99.90;;;;;;5115713;28;20402;-60
2023/12/25 04:23:55;;;;;;;9.38;1.48;;;12.40;99.90;;;;;;5115405;28;20040;-57
2023/12/25 04:26:22;;;;;;;7.38;2.03;;;12.20;99.90;;;;;;5114023;28;20065;-60
2023/12/25 04:28:48;;;;;;;11.23;1.70;;;12.10;99.90;;;;;;5111594;28;20112;-58
2023/12/25 04:31:15;;;;;;;17.45;2.25;;;12.10;99.90;;;;;;5094841;28;20050;-56
2023/12/25 04:33:41;;;;;;;11.45;2.40;;;12.10;99.90;;;;;;5094670;28;20044;-58
2023/12/25 04:36:07;;;;;;;9.32;1.70;;;12.10;99.90;;;;;;5095124;28;20106;-59
2023/12/25 04:38:33;;;;;;;12.02;1.65;;;12.10;99.90;;;;;;5094988;28;20430;-58
2023/12/25 04:40:59;;;;;;;15.02;1.80;;;12.10;99.90;;;;;;5094483;28;20908;-58
2023/12/25 04:43:25;;;;;;;11.52;2.30;;;12.20;99.90;;;;;;5094830;28;20032;-57
2023/12/25 04:45:51;;;;;;;7.57;1.45;;;12.40;99.90;;;;;;5094678;28;20066;-58
2023/12/25 04:48:17;;;;;;;7.95;1.27;;;12.30;99.90;;;;;;5094283;28;20042;-58
2023/12/25 04:50:44;;;;;;;15.93;2.28;;;12.10;99.90;;;;;;5094088;28;20395;-57
2023/12/25 04:53:10;;;;;;;13.15;3.05;;;12.40;99.90;;;;;;5094031;28;20052;-58
2023/12/25 04:55:37;;;;;;;14.68;1.73;;;12.10;99.90;;;;;;5092805;28;20390;-58
2023/12/25 04:58:03;;;;;;;12.27;1.65;;;12.20;99.90;;;;;;5094207;28;20036;-58
2023/12/25 05:00:30;;;;;;;13.30;2.42;;;12.10;99.90;;;;;;5094307;28;20104;-60
2023/12/25 05:02:55;;;;;;;11.55;2.97;;;12.50;99.90;;;;;;5094454;28;20040;-59
2023/12/25 05:05:21;;;;;;;9.93;1.48;;;12.10;99.90;;;;;;5094345;28;20038;-58
2023/12/25 05:07:47;;;;;;;15.20;2.75;;;12.40;99.90;;;;;;5094412;28;20036;-59
2023/12/25 05:10:12;;;;;;;10.80;1.75;;;12.30;99.90;;;;;;5093992;28;20039;-59
2023/12/25 05:12:38;;;;;;;16.80;2.53;;;12.70;99.90;;;;;;5094205;28;20076;-60
2023/12/25 05:15:04;;;;;;;14.80;2.80;;;12.30;99.90;;;;;;5094161;28;20036;-57
2023/12/25 05:17:30;;;;;;;12.45;2.00;;;12.20;99.90;;;;;;5093247;28;20028;-57
2023/12/25 05:19:55;;;;;;;14.98;1.92;;;12.30;99.90;;;;;;5104288;28;20565;-59
2023/12/25 05:22:21;;;;;;;14.95;2.08;;;12.20;99.90;;;;;;5094001;28;20043;-58
2023/12/25 05:24:47;;;;;;;13.00;2.53;;;12.10;99.90;;;;;;5093724;28;20036;-58
2023/12/25 05:27:13;;;;;;;12.95;2.42;;;12.60;99.90;;;;;;5094119;28;20035;-59
2023/12/25 05:29:38;;;;;;;15.98;2.33;;;12.30;99.90;;;;;;5098085;28;20121;-59
2023/12/25 05:32:04;;;;;;;15.07;2.60;;;12.30;99.90;;;;;;5114192;28;20035;-59
2023/12/25 05:34:30;;;;;;;13.38;2.60;;;12.40;99.90;;;;;;5114168;28;20047;-58
2023/12/25 05:36:56;;;;;;;13.40;1.98;;;12.10;99.90;;;;;;5113951;28;20058;-59
2023/12/25 05:39:22;;;;;;;11.82;1.60;;;12.10;99.90;;;;;;5113934;28;20043;-58
2023/12/25 05:41:47;;;;;;;15.02;2.25;;;12.30;99.90;;;;;;5113783;28;20043;-59
2023/12/25 05:44:13;;;;;;;16.15;2.40;;;12.30;99.90;;;;;;5112430;28;20051;-59
2023/12/25 05:46:39;;;;;;;14.75;1.80;;;12.10;99.90;;;;;;5096929;28;20040;-59
2023/12/25 05:49:05;;;;;;;11.90;1.80;;;12.60;99.90;;;;;;5092862;28;20046;-59
2023/12/25 05:51:31;;;;;;;12.05;1.80;;;12.20;99.90;;;;;;5093686;28;20048;-58
2023/12/25 05:53:56;;;;;;;12.18;1.83;;;12.30;99.90;;;;;;5093155;28;20044;-58
2023/12/25 05:56:22;;;;;;;11.00;2.10;;;12.00;99.90;;;;;;5093487;28;20037;-59
2023/12/25 05:58:48;;;;;;;14.45;2.10;;;12.00;99.90;;;;;;5093310;28;20403;-57
2023/12/25 06:01:14;;;;;;;11.60;1.75;;;12.50;99.90;;;;;;5113711;28;20641;-58
2023/12/25 06:03:40;;;;;;;12.32;2.53;;;12.00;99.90;;;;;;5101480;28;20040;-57
2023/12/25 06:06:06;;;;;;;9.75;2.03;;;12.30;99.90;;;;;;5093280;28;20111;-57
2023/12/25 06:08:32;;;;;;;11.20;1.65;;;12.30;99.90;;;;;;5092934;28;20115;-58
2023/12/25 06:10:58;;;;;;;13.95;2.67;;;12.00;99.90;;;;;;5093182;28;20036;-59
2023/12/25 06:13:24;;;;;;;11.88;2.28;;;12.10;99.90;;;;;;5093086;28;20289;-59
2023/12/25 06:15:50;;;;;;;11.45;1.60;;;12.10;99.90;;;;;;5092855;28;20043;-57
2023/12/25 06:18:16;;;;;;;11.40;1.65;;;11.90;99.90;;;;;;5092478;28;20036;-56
2023/12/25 06:20:41;;;;;;;12.75;1.67;;;12.80;99.90;;;;;;5092675;28;20093;-58
2023/12/25 06:23:07;;;;;;;14.73;2.28;;;11.80;99.90;;;;;;5113334;28;20035;-59
2023/12/25 06:25:33;;;;;;;12.25;1.77;;;12.10;99.90;;;;;;5094132;28;20036;-59
2023/12/25 06:27:58;;;;;;;7.07;1.55;;;11.70;99.90;;;;;;5091967;28;20042;-57
2023/12/25 06:30:25;;;;;;;8.05;1.73;;;12.10;99.90;;;;;;5111349;28;20048;-58
2023/12/25 06:32:50;;;;;;;11.00;1.60;;;11.70;99.90;;;;;;5111286;28;20475;-59
2023/12/25 06:35:16;;;;;;;14.43;2.13;;;12.00;99.90;;;;;;5112828;28;20043;-58
2023/12/25 06:37:42;;;;;;;8.30;1.70;;;11.70;99.90;;;;;;5100949;28;20034;-59
2023/12/25 06:40:08;;;;;;;9.35;1.38;;;12.00;99.90;;;;;;5092472;28;20490;-57
2023/12/25 06:42:34;;;;;;;12.98;2.10;;;11.70;99.90;;;;;;5092355;28;20090;-58
2023/12/25 06:44:59;;;;;;;12.18;1.77;;;11.90;99.90;;;;;;5092593;28;20040;-58
2023/12/25 06:47:26;;;;;;;11.07;2.25;;;11.90;99.90;;;;;;5092533;28;20568;-57
2023/12/25 06:49:52;;;;;;;9.15;1.70;;;11.60;99.90;;;;;;5090744;28;20469;-57
2023/12/25 06:52:18;;;;;;;9.35;1.60;;;11.50;99.90;;;;;;5093673;28;20407;-58
2023/12/25 06:54:44;;;;;;;9.48;1.65;;;11.80;99.90;;;;;;5112563;28;20486;-59
2023/12/25 06:57:11;;;;;;;7.80;1.77;;;11.50;99.90;;;;;;5106143;28;20085;-58
2023/12/25 06:59:37;;;;;;;14.32;2.10;;;11.40;99.90;;;;;;5091366;28;20126;-57
2023/12/25 07:02:03;;;;;;;10.15;1.77;;;11.70;99.90;;;;;;5091518;28;20101;-60
2023/12/25 07:04:29;;;;;;;9.43;1.73;;;11.30;99.90;;;;;;5091974;28;20036;-58
2023/12/25 07:06:54;;;;;;;9.18;1.50;;;11.30;99.90;;;;;;5092082;28;20047;-58
2023/12/25 07:09:20;;;;;;;7.90;1.60;;;11.30;99.90;;;;;;5091683;28;20036;-59
2023/12/25 07:11:46;;;;;;;14.05;1.77;;;11.40;99.90;;;;;;5091245;28;20040;-59
2023/12/25 07:14:12;;;;;;;8.48;1.58;;;11.30;99.90;;;;;;5091632;28;20124;-56
2023/12/25 07:16:38;;;;;;;8.65;1.60;;;11.60;99.90;;;;;;5090834;28;20047;-58
2023/12/25 07:19:04;;;;;;;10.05;1.50;;;11.30;99.90;;;;;;5090196;28;20040;-59
2023/12/25 07:21:30;;;;;;;9.63;1.38;;;11.40;99.90;;;;;;5093892;28;20039;-57
2023/12/25 07:23:56;;;;;;;11.68;2.05;;;11.40;99.90;;;;;;5088449;28;20036;-57
2023/12/25 07:26:22;;;;;;;13.45;1.85;;;11.30;99.90;;;;;;5091353;28;20119;-59
2023/12/25 07:28:48;;;;;;;8.50;1.60;;;11.20;99.90;;;;;;5089665;28;20114;-57
2023/12/25 07:31:15;;;;;;;16.13;2.13;;;11.10;99.90;;;;;;5091099;28;20036;-59
2023/12/25 07:33:41;;;;;;;11.98;1.70;;;11.40;99.90;;;;;;5090628;28;20040;-58
2023/12/25 07:36:07;;;;;;;11.18;2.35;;;11.00;99.90;;;;;;5085079;28;20042;-59
2023/12/25 07:38:34;;;;;;;10.80;1.52;;;10.90;99.90;;;;;;5089510;28;20040;-57
2023/12/25 07:41:01;;;;;;;9.65;1.60;;;10.70;99.90;;;;;;5089768;28;20060;-59
2023/12/25 07:43:27;;;;;;;9.20;1.50;;;11.00;99.90;;;;;;5090934;28;20130;-58
2023/12/25 07:45:53;;;;;;;9.40;1.70;;;10.60;99.90;;;;;;5090584;28;20613;-57
2023/12/25 07:48:19;;;;;;;15.60;1.65;;;10.90;99.90;;;;;;5090421;28;20040;-58
2023/12/25 07:50:45;;;;;;;9.65;1.67;;;10.60;99.90;;;;;;5090989;28;20035;-59
2023/12/25 07:53:11;;;;;;;13.23;2.08;;;10.60;99.90;;;;;;5108334;28;20044;-57
2023/12/25 07:55:38;;;;;;;10.13;2.20;;;10.70;99.90;;;;;;5111349;28;20048;-58
2023/12/25 07:58:04;;;;;;;13.63;1.42;;;10.70;99.90;;;;;;5111477;28;20044;-56
2023/12/25 08:00:30;;;;;;;10.77;2.45;;;10.60;99.90;;;;;;5111371;28;20043;-58
2023/12/25 08:02:55;;;;;;;14.63;2.13;;;11.10;99.90;;;;;;5111561;28;20039;-57
2023/12/25 08:05:21;;;;;;;13.75;2.45;;;10.70;99.90;;;;;;5103180;28;20040;-57
2023/12/25 08:07:47;;;;;;;16.95;2.10;;;10.70;99.90;;;;;;5090795;28;20042;-58
2023/12/25 08:10:13;;;;;;;13.15;1.70;;;10.80;99.90;;;;;;5081470;28;20068;-58
2023/12/25 08:12:43;;;;;;;6.15;1.10;;;11.00;99.90;;;;;;5081507;28;20067;-57
2023/12/25 08:15:11;;;;;;;11.90;1.63;;;11.00;99.90;;;;;;5082729;28;20044;-58
2023/12/25 08:17:36;;;;;;;15.55;2.65;;;10.60;99.90;;;;;;5079933;28;20406;-58
2023/12/25 08:20:02;;;;;;;10.00;1.50;;;10.70;99.90;;;;;;5082571;28;20040;-58
2023/12/25 08:22:28;;;;;;;12.30;1.90;;;10.70;99.90;;;;;;5082734;28;20061;-58
2023/12/25 08:24:54;;;;;;;13.95;1.83;;;10.70;99.90;;;;;;5082242;28;20040;-54
2023/12/25 08:27:19;;;;;;;9.27;1.40;;;11.10;99.90;;;;;;5082193;28;20115;-58
2023/12/25 08:29:45;;;;;;;12.23;2.10;;;11.30;99.90;;;;;;5082009;28;20032;-56
2023/12/25 08:32:13;;;;;;;10.18;1.63;;;10.80;99.90;;;;;;5081641;28;20376;-57
2023/12/25 08:34:40;;;;;;;11.55;1.88;;;10.90;99.90;;;;;;5081717;28;20039;-58
2023/12/25 08:37:05;;;;;;;12.20;2.13;;;11.00;99.90;;;;;;5082301;28;20372;-58
2023/12/25 08:39:31;;;;;;;12.25;1.52;;;10.60;99.90;;;;;;5080913;28;20089;-59
2023/12/25 08:42:00;;;;;;;13.57;1.77;;;10.50;99.90;;;;;;5082556;28;20046;-58
2023/12/25 08:44:29;;;;;;;9.13;1.23;;;10.70;99.90;;;;;;5081785;28;20036;-60
2023/12/25 08:46:55;;;;;;;9.25;1.58;;;10.70;99.90;;;;;;5081872;28;20036;-57
2023/12/25 08:49:21;;;;;;;10.73;2.13;;;10.90;99.90;;;;;;5078785;28;20081;-57
2023/12/25 08:51:46;;;;;;;11.07;1.77;;;10.70;99.90;;;;;;5082340;28;20127;-59
2023/12/25 08:54:12;;;;;;;14.75;2.03;;;10.80;99.90;;;;;;5081469;28;20123;-58
2023/12/25 08:56:38;;;;;;;18.02;1.83;;;11.00;99.90;;;;;;5082720;28;20028;-59
2023/12/25 08:59:05;;;;;;;13.02;2.00;;;11.00;99.90;;;;;;5082023;28;20375;-57
2023/12/25 09:01:31;;;;;;;16.05;2.08;;;11.20;99.90;;;;;;5107110;28;20052;-57
2023/12/25 09:03:57;;;;;;;10.98;1.80;;;10.90;99.90;;;;;;5083178;28;20040;-60
2023/12/25 09:06:24;;;;;;;12.20;1.65;;;11.00;99.90;;;;;;5086693;28;20040;-57
2023/12/25 09:08:50;;;;;;;16.13;3.67;;;10.90;99.90;;;;;;5085429;28;20083;-57
2023/12/25 09:11:16;;;;;;;12.02;1.65;;;10.90;99.90;;;;;;5083797;28;20032;-56
2023/12/25 09:13:42;;;;;;;17.90;1.80;;;10.70;99.90;;;;;;5085101;28;20047;-58
2023/12/25 09:16:08;;;;;;;20.25;2.42;;;10.80;99.90;;;;;;5086615;28;20028;-57
2023/12/25 09:18:34;;;;;;;12.45;1.70;;;11.20;99.90;;;;;;5085583;28;20031;-57
2023/12/25 09:21:00;;;;;;;10.98;2.58;;;10.80;99.90;;;;;;5085305;28;20133;-59
2023/12/25 09:23:26;;;;;;;16.27;2.92;;;10.70;99.90;;;;;;5085230;28;20115;-58
2023/12/25 09:25:52;;;;;;;20.83;2.03;;;11.00;99.90;;;;;;5084849;28;20538;-57
2023/12/25 09:28:17;;;;;;;14.25;1.95;;;11.10;99.90;;;;;;5086085;28;20044;-59
2023/12/25 09:30:44;;;;;;;10.85;1.67;;;11.10;99.90;;;;;;5085265;28;20038;-57
2023/12/25 09:33:10;;;;;;;15.80;1.80;;;10.90;99.90;;;;;;5085356;28;20043;-58
2023/12/25 09:35:36;;;;;;;15.00;2.20;;;10.70;99.90;;;;;;5084677;28;20030;-56
2023/12/25 09:38:02;;;;;;;9.50;1.58;;;11.00;99.90;;;;;;5084258;28;20044;-57
2023/12/25 09:40:29;;;;;;;13.80;1.85;;;10.80;99.90;;;;;;5085123;28;20069;-58
2023/12/25 09:42:55;;;;;;;13.02;1.63;;;10.60;99.90;;;;;;5084948;28;20383;-56
2023/12/25 09:45:22;;;;;;;10.18;2.13;;;10.70;99.90;;;;;;5082765;28;20074;-59
2023/12/25 09:47:49;;;;;;;17.05;1.63;;;11.00;99.90;;;;;;5084761;28;20466;-59
2023/12/25 09:50:17;;;;;;;14.75;2.75;;;11.00;99.90;;;;;;5083317;28;20036;-58
2023/12/25 09:52:42;;;;;;;14.35;1.73;;;10.80;99.90;;;;;;5084739;28;20052;-58
2023/12/25 09:55:08;;;;;;;11.15;2.00;;;10.70;99.90;;;;;;5085003;28;20036;-58
2023/12/25 09:57:36;;;;;;;16.02;2.70;;;11.10;99.90;;;;;;5083968;28;20044;-58
2023/12/25 10:00:04;;;;;;;10.55;2.13;;;11.90;99.90;;;;;;5082536;28;20214;-57
2023/12/25 10:02:34;;;;;;;13.88;1.70;;;11.10;99.90;;;;;;5085406;28;20487;-58
2023/12/25 10:04:59;;;;;;;10.60;1.75;;;10.90;99.90;;;;;;5084002;28;20047;-59
2023/12/25 10:07:25;;;;;;;11.38;1.80;;;11.30;99.90;;;;;;5085032;28;20024;-58
2023/12/25 10:09:53;;;;;;;15.70;1.88;;;11.40;99.90;;;;;;5083505;28;20063;-59
2023/12/25 10:12:19;;;;;;;14.43;2.63;;;10.90;99.90;;;;;;5083296;28;20036;-58
2023/12/25 10:14:46;;;;;;;10.02;1.63;;;11.00;99.90;;;;;;5084405;28;20476;-57
2023/12/25 10:17:12;;;;;;;13.60;2.50;;;11.40;99.90;;;;;;5083753;28;20173;-56
2023/12/25 10:19:54;;;;;;;15.07;2.40;;;11.30;99.90;;;;;;5082978;28;20439;-57
2023/12/25 10:22:29;;;;;;;11.23;1.60;;;11.20;99.90;;;;;;5084440;28;20040;-57
2023/12/25 10:25:03;;;;;;;13.02;2.05;;;11.10;99.90;;;;;;5083134;28;20038;-57
2023/12/25 10:27:29;;;;;;;12.43;1.92;;;11.20;99.90;;;;;;5082471;28;20113;-59
2023/12/25 10:29:55;;;;;;;13.65;1.70;;;11.70;99.90;;;;;;5083966;28;20518;-57
2023/12/25 10:32:20;;;;;;;12.93;1.60;;;11.40;99.90;;;;;;5084512;28;20497;-59
2023/12/25 10:34:46;;;;;;;12.40;1.70;;;11.30;99.90;;;;;;5084526;28;20558;-58
2023/12/25 10:37:14;;;;;;;17.80;1.70;;;11.30;99.90;;;;;;5085040;28;20364;-59
2023/12/25 10:39:39;;;;;;;10.23;1.42;;;11.30;99.90;;;;;;5083953;28;20135;-59
2023/12/25 10:42:06;;;;;;;12.23;1.52;;;11.50;99.90;;;;;;5085100;28;20123;-55
2023/12/25 10:44:33;;;;;;;10.38;1.50;;;11.30;99.90;;;;;;5084203;28;20036;-59
2023/12/25 10:47:02;;;;;;;10.15;1.67;;;11.40;99.90;;;;;;5083789;28;20034;-58
2023/12/25 10:49:29;;;;;;;6.43;1.52;;;11.40;99.90;;;;;;5082087;28;20058;-57
2023/12/25 10:51:55;;;;;;;9.05;1.90;;;11.60;99.90;;;;;;5082324;28;21224;-59
2023/12/25 10:54:22;;;;;;;12.63;2.00;;;11.30;99.90;;;;;;5081750;28;20052;-59
2023/12/25 10:56:49;;;;;;;11.45;1.55;;;11.30;99.90;;;;;;5082105;28;20040;-57
2023/12/25 10:59:19;;;;;;;9.23;1.30;;;11.40;99.90;;;;;;5083502;28;20068;-58
2023/12/25 11:01:48;;;;;;;10.02;1.60;;;11.30;99.90;;;;;;5083370;28;20040;-55
2023/12/25 11:04:17;;;;;;;9.98;2.25;;;11.80;99.90;;;;;;5083464;28;20050;-58
2023/12/25 11:06:47;;;;;;;12.55;2.03;;;11.70;99.90;;;;;;5084373;28;20067;-58
2023/12/25 11:09:17;;;;;;;15.77;2.05;;;11.80;99.90;;;;;;5083503;28;20024;-58
2023/12/25 11:11:44;;;;;;;12.48;1.50;;;11.90;99.90;;;;;;5083976;28;20036;-60
2023/12/25 11:14:11;;;;;;;12.77;1.90;;;11.90;99.90;;;;;;5084259;28;20064;-58
2023/12/25 11:16:37;;;;;;;6.35;1.40;;;11.50;99.90;;;;;;5083470;28;20036;-59
2023/12/25 11:19:04;;;;;;;16.08;2.20;;;11.70;99.90;;;;;;5082176;28;20090;-58
2023/12/25 11:21:32;;;;;;;13.82;3.00;;;12.00;99.90;;;;;;5084433;28;20040;-59
2023/12/25 11:24:00;;;;;;;13.50;1.80;;;12.00;99.90;;;;;;5083407;28;20470;-59
2023/12/25 11:26:27;;;;;;;10.38;1.67;;;11.60;99.90;;;;;;5082623;28;20040;-59
2023/12/25 11:28:58;;;;;;;14.10;2.22;;;11.50;99.90;;;;;;5081406;28;20036;-58
2023/12/25 11:31:27;;;;;;;6.78;1.58;;;11.50;99.90;;;;;;5083493;28;20040;-58
2023/12/25 11:33:52;;;;;;;10.63;1.80;;;12.00;99.90;;;;;;5082952;28;20038;-55
2023/12/25 11:36:19;;;;;;;12.20;1.60;;;11.80;99.90;;;;;;5084490;28;20032;-57
2023/12/25 11:38:55;;;;;;;14.77;2.20;;;11.40;99.90;;;;;;5082294;28;20118;-57
2023/12/25 11:41:22;;;;;;;15.70;2.17;;;11.60;99.90;;;;;;5083810;28;20043;-58
2023/12/25 11:43:48;;;;;;;9.18;1.98;;;12.10;99.90;;;;;;5083208;28;20487;-58
2023/12/25 11:46:18;;;;;;;12.25;1.98;;;11.90;99.90;;;;;;5081034;28;20042;-57
2023/12/25 11:48:46;;;;;;;16.65;2.30;;;11.90;99.90;;;;;;5080879;28;20178;-57
2023/12/25 11:51:20;;;;;;;11.30;2.30;;;11.90;99.90;;;;;;5083501;28;20063;-59
2023/12/25 11:53:46;;;;;;;;;;;11.40;99.90;;;;;;5082525;28;20058;-58
2023/12/25 11:56:12;;;;;;;10.20;2.10;;;11.70;99.90;;;;;;5109870;27;20359;-57
2023/12/25 11:58:39;;;;;;;12.65;2.35;;;11.40;99.90;;;;;;5082116;28;20094;-60
2023/12/25 12:01:05;;;;;;;15.82;2.47;;;11.50;99.90;;;;;;5082731;28;20479;-57
2023/12/25 12:03:33;;;;;;;15.85;2.92;;;12.30;99.90;;;;;;5082514;28;20051;-58
2023/12/25 12:05:59;;;;;;;14.75;2.70;;;11.90;99.90;;;;;;5082508;28;20040;-60
2023/12/25 12:08:28;;;;;;;16.33;2.88;;;11.90;99.90;;;;;;5080105;28;20056;-57
2023/12/25 12:10:54;;;;;;;11.63;2.22;;;12.00;99.90;;;;;;5080460;28;20040;-59
2023/12/25 12:13:20;;;;;;;14.07;2.25;;;11.70;99.90;;;;;;5061827;28;20046;-58
2023/12/25 12:15:46;;;;;;;14.65;2.50;;;12.10;99.90;;;;;;5080120;28;20036;-59
2023/12/25 12:18:11;;;;;;;12.65;2.58;;;11.50;99.90;;;;;;5079309;28;20548;-57
2023/12/25 12:20:37;;;;;;;13.90;2.28;;;12.00;99.90;;;;;;5079914;28;20055;-58
2023/12/25 12:23:04;;;;;;;25.25;3.25;;;11.70;99.90;;;;;;5081326;28;20075;-58
2023/12/25 12:25:30;;;;;;;18.75;2.25;;;12.30;99.90;;;;;;5082801;28;20028;-58
2023/12/25 12:28:00;;;;;;;12.68;2.10;;;11.70;99.90;;;;;;5082515;28;20039;-59
2023/12/25 12:30:28;;;;;;;16.48;2.42;;;12.20;99.90;;;;;;5082075;28;20072;-56
2023/12/25 12:32:54;;;;;;;10.40;1.95;;;12.00;99.90;;;;;;5083294;28;20035;-57